Airfield :
LOGIN :

Register | Disclaimer

   EN    FR    IT 

 










Legend :    VFR   Marginal VFR   IFR   Intensive IFR   Very Intensive IFR
Visi :
Ceiling :
>= 8 km
>= 3000ft
5 to 8 km
1000 to 3000 ft
1500m to 5 km
500 to 1000 ft
800 to 1500m
200 to 500 ft
< 800m
< 200 ft
Symbols :   Thunderstorms  Fog  Heavy snow  Heavy precipitations  Wind > 20 kt
SIGMETs :     Misc.  Thunderstorms  Icing  Turbulence  Mountain Waves  Volcanic Ashes







- Airport Elevation : 160 ft
- IATA code : LRT
- Download approach charts


LFRH - Lorient Lann Bihoue

CURRENT METAR :
  • 191930Z AUTO 28010KT 9999 SCT022 SCT027 13/11 Q1005 BECMG 27015G25KT

EXPIRED METARs :
  • 191900Z AUTO 28013KT 9999 BKN018 BKN060 BKN140 14/12 Q1004 BECMG 27015G25KT
  • 191830Z AUTO 28012KT 9999 BKN016 BKN027 BKN035 14/13 Q1004 BECMG 27015G25KT
  • 191800Z AUTO 28011KT 240V300 9999 BKN015 BKN026 OVC035 15/13 Q1003 BECMG 27015G25KT
  • 191730Z AUTO 27013KT 9999 FEW004 BKN012 BKN028 15/14 Q1002 BECMG 27015G25KT SCT025
  • 191700Z AUTO 21021G33KT 3500 -RA BR OVC005/// ///TCU 15/15 Q1001 BECMG 27015G25KT 9999 NSW SCT030

TAF TAF LFRH
Valid from the 19 at 18:00 until the 20 at 18:00 UTC


191700Z 1918/2018 27015G25KT 5000 -RA SCT010 BKN015 OVC035
TEMPO 1918/1919 26025G35KT
BECMG 1919/1921 NSW SCT025
BECMG 2002/2004 28010KT
BECMG 2012/2014 21012G22KT
BECMG 2015/2017 BKN015
No reported NOTAMs for that airfield.
3 SIGMETs reported for the Brest FIR (LFRR) :
 
Severe turbulence
LFRR SIGMET 8 VALID 192000/192300 LFPW
LFRR BREST FIR/UIR SEV TURB FCST WI N4930 W00115 - N4700 W00045 - N4630 W00245 - N4900 W00545 FL180/310 MOV NE 30KT NC=
Severe turbulence
LFRR SIGMET 7 VALID 191900/192300 LFPW
LFRR BREST FIR/UIR SEV TURB OBS WI N4915 W00700 - N5000 W00200 - N5000 W00015 - N4815 W00015 - N4630 W00215 - N4715 W00330 - N4830 W00315 - N4845 W00600 SFC/FL060 MOV NE 30KT NC=
Severe turbulence
LFRR SIGMET 6 VALID 191800/192200 LFPW
LFRR BREST FIR/UIR SEV TURB FCST WI N4545 W00145 - N4330 W00145 - N4400 W00330 - N4630 W00430 - N4645 W00215 FL220/310 MOV E 30KT WKN=



MET'MAP, your aeronautical weather chart ! - Copyright ORBIFLY December 2007 - Disclaimer

ORBIFLY MET'MAP TEAM :

Programming & Development : Alexandra Zaïnal
Concept & Development : Baudouin d'Aumeries
Co-Development & Prog : Marc-Olivier Méhu
Technical & hardware support : Manuel Goepfert

Contact : metmap@orbifly.com




SOURCES & CREDITS :

   NOAA